Bratislava, Slovakia
Current Conditions -  °F | °C
As of 11:00 PM on Monday 20 Oct 2014 (Local Time) from LZIB Reporting Station
Light Rain Light Rain  
Wind Chill: 59°   Ceiling: 5400
Heat Index: 59°   Visibility: 6mi
Dew Point: 57°   Wind: 1mph
Humidity: 94%   Direction: NA
Pressure: 29.97"   Gusts: NA
Location:  48.16°N, 17.13°E
Report Text: LZIB 202100Z VRB01KT 9999 -RA FEW016 BKN054 15/14 Q1015
Loading
Personal Weather Stations






























Interactive Weather Map New forecast layout! Learn more

10-Day Weather Forecast

Advertisements
Track Severe Weather on mobile